Terminal Aerodrome Forecast
Issued by NWS

Home | Current Version | Previous Version | Text Only | Print | Product List | Glossary On
Versions: 1 2 3 4 5 6 7 8 9 10 11 12 13 14 15 16 17 18 19 20 21 22 23 24 25 26 27 28 29 30 31
000
FTUS41 KGYX 031128
TAFMHT
TAF
KMHT 031128Z 0312/0412 00000KT P6SM SCT120 BKN200
     FM031500 03006KT P6SM SCT080 BKN200
     FM032100 05007KT P6SM VCTS SCT050CB BKN080
     FM040100 05005KT P6SM -SHRA BKN050 OVC070
     FM040500 02007KT P6SM BKN050 BKN080=

USA.gov is the U.S. government's official web portal to all federal, state and local government web resources and services.